sensor_id;sensor_type;location;lat;lon;timestamp;pressure;altitude;pressure_sealevel;temperature;humidity
64835;BME280;51293;59.296;18.006;2023-01-30T00:01:05;97883.59;;;4.32;99.39
64835;BME280;51293;59.296;18.006;2023-01-30T00:03:31;97864.84;;;4.32;99.33
64835;BME280;51293;59.296;18.006;2023-01-30T00:05:57;97867.53;;;4.37;98.90
64835;BME280;51293;59.296;18.006;2023-01-30T00:08:22;97860.28;;;4.32;99.26
64835;BME280;51293;59.296;18.006;2023-01-30T00:10:47;97828.13;;;4.37;99.58
64835;BME280;51293;59.296;18.006;2023-01-30T00:13:14;97829.22;;;4.36;98.94
64835;BME280;51293;59.296;18.006;2023-01-30T00:15:40;97812.31;;;4.36;98.91
64835;BME280;51293;59.296;18.006;2023-01-30T00:18:05;97836.22;;;4.42;98.63
64835;BME280;51293;59.296;18.006;2023-01-30T00:20:31;97802.97;;;4.43;98.34
64835;BME280;51293;59.296;18.006;2023-01-30T00:22:56;97813.66;;;4.38;98.48
64835;BME280;51293;59.296;18.006;2023-01-30T00:25:23;97793.38;;;4.47;98.09
64835;BME280;51293;59.296;18.006;2023-01-30T00:27:49;97783.44;;;4.48;98.03
64835;BME280;51293;59.296;18.006;2023-01-30T00:30:14;97798.72;;;4.47;97.96
64835;BME280;51293;59.296;18.006;2023-01-30T00:32:40;97779.13;;;4.42;98.37
64835;BME280;51293;59.296;18.006;2023-01-30T00:35:05;97776.47;;;4.47;98.13
64835;BME280;51293;59.296;18.006;2023-01-30T00:37:31;97801.13;;;4.49;97.82
64835;BME280;51293;59.296;18.006;2023-01-30T00:39:56;97778.09;;;4.48;97.79
64835;BME280;51293;59.296;18.006;2023-01-30T00:42:22;97788.31;;;4.56;97.22
64835;BME280;51293;59.296;18.006;2023-01-30T00:45:09;97784.25;;;4.48;97.56
64835;BME280;51293;59.296;18.006;2023-01-30T00:47:53;97792.81;;;4.50;97.40
64835;BME280;51293;59.296;18.006;2023-01-30T00:50:19;97769.78;;;4.49;97.25
64835;BME280;51293;59.296;18.006;2023-01-30T00:52:44;97759.56;;;4.46;97.01
64835;BME280;51293;59.296;18.006;2023-01-30T00:55:10;97742.94;;;4.44;97.42
64835;BME280;51293;59.296;18.006;2023-01-30T00:57:35;97734.38;;;4.42;97.24
64835;BME280;51293;59.296;18.006;2023-01-30T01:00:00;97732.22;;;4.44;96.81
64835;BME280;51293;59.296;18.006;2023-01-30T01:02:26;97701.44;;;4.47;96.97
64835;BME280;51293;59.296;18.006;2023-01-30T01:04:51;97705.97;;;4.46;96.46
64835;BME280;51293;59.296;18.006;2023-01-30T01:07:17;97714.28;;;4.45;96.39
64835;BME280;51293;59.296;18.006;2023-01-30T01:09:42;97697.91;;;4.46;96.24
64835;BME280;51293;59.296;18.006;2023-01-30T01:12:08;97688.03;;;4.47;95.64
64835;BME280;51293;59.296;18.006;2023-01-30T01:14:33;97686.16;;;4.47;96.00
64835;BME280;51293;59.296;18.006;2023-01-30T01:16:59;97664.69;;;4.42;95.93
64835;BME280;51293;59.296;18.006;2023-01-30T01:19:24;97664.44;;;4.44;95.90
64835;BME280;51293;59.296;18.006;2023-01-30T01:21:49;97666.03;;;4.40;95.91
64835;BME280;51293;59.296;18.006;2023-01-30T01:24:15;97649.66;;;4.36;96.02
64835;BME280;51293;59.296;18.006;2023-01-30T01:26:41;97655.31;;;4.35;96.14
64835;BME280;51293;59.296;18.006;2023-01-30T01:29:12;97642.69;;;4.35;96.03
64835;BME280;51293;59.296;18.006;2023-01-30T01:31:37;97639.22;;;4.35;96.22
64835;BME280;51293;59.296;18.006;2023-01-30T01:34:02;97634.13;;;4.33;96.17
64835;BME280;51293;59.296;18.006;2023-01-30T01:36:28;97640.28;;;4.34;96.05
64835;BME280;51293;59.296;18.006;2023-01-30T01:38:53;97627.97;;;4.38;95.80
64835;BME280;51293;59.296;18.006;2023-01-30T01:41:19;97639.75;;;4.32;96.26
64835;BME280;51293;59.296;18.006;2023-01-30T01:46:29;97636.28;;;4.36;96.01
64835;BME280;51293;59.296;18.006;2023-01-30T01:48:59;97621.28;;;4.35;96.12
64835;BME280;51293;59.296;18.006;2023-01-30T01:54:14;97618.03;;;4.28;96.33
64835;BME280;51293;59.296;18.006;2023-01-30T01:56:44;97619.09;;;4.27;96.43
64835;BME280;51293;59.296;18.006;2023-01-30T01:59:19;97619.13;;;4.32;96.24
64835;BME280;51293;59.296;18.006;2023-01-30T02:01:47;97622.88;;;4.31;96.61
64835;BME280;51293;59.296;18.006;2023-01-30T02:04:13;97598.22;;;4.29;97.56
64835;BME280;51293;59.296;18.006;2023-01-30T02:06:59;97603.03;;;4.22;98.06
64835;BME280;51293;59.296;18.006;2023-01-30T02:09:24;97590.97;;;4.19;98.66
64835;BME280;51293;59.296;18.006;2023-01-30T02:11:55;97579.97;;;4.11;99.45
64835;BME280;51293;59.296;18.006;2023-01-30T02:14:22;97571.13;;;4.10;99.51
64835;BME280;51293;59.296;18.006;2023-01-30T02:16:48;97562.03;;;4.06;99.47
64835;BME280;51293;59.296;18.006;2023-01-30T02:33:22;97574.56;;;3.95;100.00
64835;BME280;51293;59.296;18.006;2023-01-30T02:41:15;97535.75;;;3.93;100.00
64835;BME280;51293;59.296;18.006;2023-01-30T02:44:04;97536.28;;;3.95;100.00
64835;BME280;51293;59.296;18.006;2023-01-30T02:46:52;97534.97;;;3.98;100.00
64835;BME280;51293;59.296;18.006;2023-01-30T02:49:41;97516.47;;;3.96;99.49
64835;BME280;51293;59.296;18.006;2023-01-30T02:52:11;97519.41;;;3.94;99.27
64835;BME280;51293;59.296;18.006;2023-01-30T02:54:37;97516.22;;;3.98;98.77
64835;BME280;51293;59.296;18.006;2023-01-30T02:57:03;97503.91;;;4.02;98.19
64835;BME280;51293;59.296;18.006;2023-01-30T02:59:44;97500.16;;;4.03;97.41
64835;BME280;51293;59.296;18.006;2023-01-30T03:05:28;97488.91;;;4.01;96.73
64835;BME280;51293;59.296;18.006;2023-01-30T03:11:01;97470.97;;;4.01;95.89
64835;BME280;51293;59.296;18.006;2023-01-30T03:16:20;97479.00;;;4.01;95.50
64835;BME280;51293;59.296;18.006;2023-01-30T03:18:48;97487.81;;;4.02;94.97
64835;BME280;51293;59.296;18.006;2023-01-30T03:21:13;97481.94;;;4.00;95.18
64835;BME280;51293;59.296;18.006;2023-01-30T03:23:39;97478.22;;;4.06;95.13
64835;BME280;51293;59.296;18.006;2023-01-30T03:26:07;97477.38;;;4.00;94.81
64835;BME280;51293;59.296;18.006;2023-01-30T03:28:35;97485.41;;;3.95;94.98
64835;BME280;51293;59.296;18.006;2023-01-30T03:31:01;97476.84;;;3.93;95.07
64835;BME280;51293;59.296;18.006;2023-01-30T03:33:27;97466.38;;;3.97;94.08
64835;BME280;51293;59.296;18.006;2023-01-30T03:35:52;97459.97;;;3.92;93.87
64835;BME280;51293;59.296;18.006;2023-01-30T03:38:18;97476.53;;;3.79;94.06
64835;BME280;51293;59.296;18.006;2023-01-30T03:40:43;97461.06;;;3.91;92.67
64835;BME280;51293;59.296;18.006;2023-01-30T03:43:09;97470.69;;;3.82;92.59
64835;BME280;51293;59.296;18.006;2023-01-30T03:45:34;97478.16;;;3.80;92.39
64835;BME280;51293;59.296;18.006;2023-01-30T03:48:00;97467.97;;;3.72;92.01
64835;BME280;51293;59.296;18.006;2023-01-30T03:50:25;97444.41;;;3.69;91.54
64835;BME280;51293;59.296;18.006;2023-01-30T03:52:50;97436.13;;;3.65;91.20
64835;BME280;51293;59.296;18.006;2023-01-30T03:55:16;97445.75;;;3.61;91.18
64835;BME280;51293;59.296;18.006;2023-01-30T03:57:41;97443.59;;;3.53;90.86
64835;BME280;51293;59.296;18.006;2023-01-30T04:00:08;97443.31;;;3.55;89.70
64835;BME280;51293;59.296;18.006;2023-01-30T04:02:33;97439.84;;;3.54;89.62
64835;BME280;51293;59.296;18.006;2023-01-30T04:04:59;97451.63;;;3.48;89.19
64835;BME280;51293;59.296;18.006;2023-01-30T04:07:24;97446.78;;;3.45;88.70
64835;BME280;51293;59.296;18.006;2023-01-30T04:09:49;97436.88;;;3.46;88.49
64835;BME280;51293;59.296;18.006;2023-01-30T04:12:15;97461.75;;;3.36;88.33
64835;BME280;51293;59.296;18.006;2023-01-30T04:14:40;97444.09;;;3.35;87.82
64835;BME280;51293;59.296;18.006;2023-01-30T04:17:06;97445.69;;;3.36;87.08
64835;BME280;51293;59.296;18.006;2023-01-30T04:19:32;97435.81;;;3.31;86.72
64835;BME280;51293;59.296;18.006;2023-01-30T04:21:57;97426.72;;;3.32;85.83
64835;BME280;51293;59.296;18.006;2023-01-30T04:24:22;97433.13;;;3.36;85.93
64835;BME280;51293;59.296;18.006;2023-01-30T04:26:48;97422.69;;;3.35;84.90
64835;BME280;51293;59.296;18.006;2023-01-30T04:29:13;97432.84;;;3.28;84.45
64835;BME280;51293;59.296;18.006;2023-01-30T04:31:38;97440.59;;;3.29;83.94
64835;BME280;51293;59.296;18.006;2023-01-30T04:34:04;97434.97;;;3.26;83.55
64835;BME280;51293;59.296;18.006;2023-01-30T04:36:29;97436.03;;;3.30;83.20
64835;BME280;51293;59.296;18.006;2023-01-30T04:38:54;97411.13;;;3.14;83.21
64835;BME280;51293;59.296;18.006;2023-01-30T04:41:22;97419.41;;;3.13;83.02
64835;BME280;51293;59.296;18.006;2023-01-30T04:43:48;97418.38;;;3.19;82.24
64835;BME280;51293;59.296;18.006;2023-01-30T04:46:13;97418.34;;;3.08;82.70
64835;BME280;51293;59.296;18.006;2023-01-30T04:48:38;97403.38;;;3.07;82.09
64835;BME280;51293;59.296;18.006;2023-01-30T04:51:04;97407.63;;;3.03;82.04
64835;BME280;51293;59.296;18.006;2023-01-30T04:53:29;97411.63;;;3.01;81.76
64835;BME280;51293;59.296;18.006;2023-01-30T04:55:55;97396.66;;;3.00;80.68
64835;BME280;51293;59.296;18.006;2023-01-30T04:58:20;97406.53;;;2.94;80.11
64835;BME280;51293;59.296;18.006;2023-01-30T05:00:46;97402.78;;;2.90;80.11
64835;BME280;51293;59.296;18.006;2023-01-30T05:03:11;97394.47;;;2.87;79.79
64835;BME280;51293;59.296;18.006;2023-01-30T05:05:37;97382.19;;;2.91;78.48
64835;BME280;51293;59.296;18.006;2023-01-30T05:08:03;97403.03;;;2.89;79.07
64835;BME280;51293;59.296;18.006;2023-01-30T05:10:28;97385.38;;;2.88;77.99
64835;BME280;51293;59.296;18.006;2023-01-30T05:12:54;97407.56;;;2.83;78.25
64835;BME280;51293;59.296;18.006;2023-01-30T05:15:19;97400.88;;;2.86;77.33
64835;BME280;51293;59.296;18.006;2023-01-30T05:17:44;97389.13;;;2.87;76.59
64835;BME280;51293;59.296;18.006;2023-01-30T05:20:11;97381.88;;;2.77;77.10
64835;BME280;51293;59.296;18.006;2023-01-30T05:22:37;97371.22;;;2.82;77.47
64835;BME280;51293;59.296;18.006;2023-01-30T05:25:02;97384.28;;;2.78;76.53
64835;BME280;51293;59.296;18.006;2023-01-30T05:27:28;97382.66;;;2.72;76.59
64835;BME280;51293;59.296;18.006;2023-01-30T05:29:53;97374.63;;;2.67;76.44
64835;BME280;51293;59.296;18.006;2023-01-30T05:32:19;97373.25;;;2.65;76.24
64835;BME280;51293;59.296;18.006;2023-01-30T05:34:46;97366.56;;;2.62;76.25
64835;BME280;51293;59.296;18.006;2023-01-30T05:37:12;97373.56;;;2.68;75.02
64835;BME280;51293;59.296;18.006;2023-01-30T05:39:37;97380.47;;;2.64;74.67
64835;BME280;51293;59.296;18.006;2023-01-30T05:42:03;97368.47;;;2.67;74.51
64835;BME280;51293;59.296;18.006;2023-01-30T05:44:29;97366.06;;;2.65;75.07
64835;BME280;51293;59.296;18.006;2023-01-30T05:46:54;97364.97;;;2.61;75.14
64835;BME280;51293;59.296;18.006;2023-01-30T05:49:20;97367.66;;;2.61;74.09
64835;BME280;51293;59.296;18.006;2023-01-30T05:51:45;97384.13;;;2.48;74.72
64835;BME280;51293;59.296;18.006;2023-01-30T05:54:11;97373.72;;;2.46;74.72
64835;BME280;51293;59.296;18.006;2023-01-30T05:56:36;97376.41;;;2.51;74.68
64835;BME280;51293;59.296;18.006;2023-01-30T05:59:02;97392.69;;;2.45;74.14
64835;BME280;51293;59.296;18.006;2023-01-30T06:01:28;97370.25;;;2.41;74.05
64835;BME280;51293;59.296;18.006;2023-01-30T06:03:54;97389.72;;;2.41;73.35
64835;BME280;51293;59.296;18.006;2023-01-30T06:06:20;97381.72;;;2.46;73.77
64835;BME280;51293;59.296;18.006;2023-01-30T06:08:46;97376.88;;;2.38;73.39
64835;BME280;51293;59.296;18.006;2023-01-30T06:11:15;97367.56;;;2.41;73.18
64835;BME280;51293;59.296;18.006;2023-01-30T06:13:40;97378.97;;;2.31;73.63
64835;BME280;51293;59.296;18.006;2023-01-30T06:16:08;97392.59;;;2.30;73.79
64835;BME280;51293;59.296;18.006;2023-01-30T06:18:34;97400.06;;;2.28;73.11
64835;BME280;51293;59.296;18.006;2023-01-30T06:21:00;97403.50;;;2.23;73.73
64835;BME280;51293;59.296;18.006;2023-01-30T06:23:25;97411.81;;;2.32;73.57
64835;BME280;51293;59.296;18.006;2023-01-30T06:25:52;97415.03;;;2.29;73.63
64835;BME280;51293;59.296;18.006;2023-01-30T06:28:18;97418.75;;;2.28;72.87
64835;BME280;51293;59.296;18.006;2023-01-30T06:30:44;97394.13;;;2.20;73.02
64835;BME280;51293;59.296;18.006;2023-01-30T06:33:10;97403.69;;;2.11;73.70
64835;BME280;51293;59.296;18.006;2023-01-30T06:35:39;97400.28;;;2.16;73.61
64835;BME280;51293;59.296;18.006;2023-01-30T06:38:04;97405.31;;;2.12;73.58
64835;BME280;51293;59.296;18.006;2023-01-30T06:40:30;97403.97;;;2.10;73.63
64835;BME280;51293;59.296;18.006;2023-01-30T06:42:56;97394.94;;;2.21;73.32
64835;BME280;51293;59.296;18.006;2023-01-30T06:45:21;97403.44;;;2.13;73.94
64835;BME280;51293;59.296;18.006;2023-01-30T06:47:48;97409.09;;;2.16;73.70
64835;BME280;51293;59.296;18.006;2023-01-30T06:50:15;97409.66;;;2.23;73.48
64835;BME280;51293;59.296;18.006;2023-01-30T06:52:43;97394.13;;;2.20;73.49
64835;BME280;51293;59.296;18.006;2023-01-30T06:55:10;97398.72;;;2.25;73.18
64835;BME280;51293;59.296;18.006;2023-01-30T06:57:36;97409.94;;;2.27;72.94
64835;BME280;51293;59.296;18.006;2023-01-30T07:00:04;97398.47;;;2.27;72.95
64835;BME280;51293;59.296;18.006;2023-01-30T07:02:30;97430.50;;;2.27;73.32
64835;BME280;51293;59.296;18.006;2023-01-30T07:04:58;97428.00;;;2.10;77.78
64835;BME280;51293;59.296;18.006;2023-01-30T07:07:24;97422.31;;;2.01;80.22
64835;BME280;51293;59.296;18.006;2023-01-30T07:09:49;97398.69;;;1.83;81.44
64835;BME280;51293;59.296;18.006;2023-01-30T07:12:14;97400.19;;;2.06;79.49
64835;BME280;51293;59.296;18.006;2023-01-30T07:14:40;97403.91;;;2.05;78.05
64835;BME280;51293;59.296;18.006;2023-01-30T07:17:05;97395.44;;;2.13;77.03
64835;BME280;51293;59.296;18.006;2023-01-30T07:19:30;97404.22;;;2.08;77.20
64835;BME280;51293;59.296;18.006;2023-01-30T07:21:56;97394.13;;;2.15;75.90
64835;BME280;51293;59.296;18.006;2023-01-30T07:24:28;97394.41;;;2.19;75.38
64835;BME280;51293;59.296;18.006;2023-01-30T07:26:53;97401.41;;;2.25;74.36
64835;BME280;51293;59.296;18.006;2023-01-30T07:29:19;97403.00;;;2.31;74.45
64835;BME280;51293;59.296;18.006;2023-01-30T07:31:44;97396.88;;;2.31;73.65
64835;BME280;51293;59.296;18.006;2023-01-30T07:34:09;97406.75;;;2.30;73.99
64835;BME280;51293;59.296;18.006;2023-01-30T07:36:35;97396.06;;;2.30;73.55
64835;BME280;51293;59.296;18.006;2023-01-30T07:39:03;97400.59;;;2.30;73.91
64835;BME280;51293;59.296;18.006;2023-01-30T07:41:28;97390.16;;;2.23;73.89
64835;BME280;51293;59.296;18.006;2023-01-30T07:43:54;97397.88;;;2.19;74.07
64835;BME280;51293;59.296;18.006;2023-01-30T07:46:19;97410.22;;;2.31;73.83
64835;BME280;51293;59.296;18.006;2023-01-30T07:48:45;97410.69;;;2.22;73.97
64835;BME280;51293;59.296;18.006;2023-01-30T07:51:10;97407.22;;;2.17;73.61
64835;BME280;51293;59.296;18.006;2023-01-30T07:53:36;97407.00;;;2.23;73.58
64835;BME280;51293;59.296;18.006;2023-01-30T07:56:09;97414.16;;;2.18;73.85
64835;BME280;51293;59.296;18.006;2023-01-30T07:58:35;97401.84;;;2.12;74.17
64835;BME280;51293;59.296;18.006;2023-01-30T08:01:00;97416.84;;;2.18;73.87
64835;BME280;51293;59.296;18.006;2023-01-30T08:03:26;97391.47;;;2.15;73.61
64835;BME280;51293;59.296;18.006;2023-01-30T08:05:51;97392.81;;;2.23;73.49
64835;BME280;51293;59.296;18.006;2023-01-30T08:08:18;97399.78;;;2.24;73.52
64835;BME280;51293;59.296;18.006;2023-01-30T08:10:43;97402.78;;;2.38;73.03
64835;BME280;51293;59.296;18.006;2023-01-30T08:13:09;97395.31;;;2.40;73.01
64835;BME280;51293;59.296;18.006;2023-01-30T08:15:34;97393.22;;;2.42;72.28
64835;BME280;51293;59.296;18.006;2023-01-30T08:18:00;97402.59;;;2.54;71.87
64835;BME280;51293;59.296;18.006;2023-01-30T08:20:26;97406.09;;;2.55;71.73
64835;BME280;51293;59.296;18.006;2023-01-30T08:22:52;97394.91;;;2.63;71.77
64835;BME280;51293;59.296;18.006;2023-01-30T08:25:17;97392.50;;;2.62;71.81
64835;BME280;51293;59.296;18.006;2023-01-30T08:27:43;97390.94;;;2.71;71.42
64835;BME280;51293;59.296;18.006;2023-01-30T08:30:10;97389.63;;;2.73;71.24
64835;BME280;51293;59.296;18.006;2023-01-30T08:32:35;97403.88;;;2.99;70.71
64835;BME280;51293;59.296;18.006;2023-01-30T08:35:01;97409.72;;;2.96;70.61
64835;BME280;51293;59.296;18.006;2023-01-30T08:37:26;97395.84;;;2.94;70.10
64835;BME280;51293;59.296;18.006;2023-01-30T08:39:52;97418.91;;;3.16;70.43
64835;BME280;51293;59.296;18.006;2023-01-30T08:42:17;97403.88;;;3.04;70.08
64835;BME280;51293;59.296;18.006;2023-01-30T08:44:43;97415.91;;;3.02;69.84
64835;BME280;51293;59.296;18.006;2023-01-30T08:47:08;97406.56;;;2.99;70.04
64835;BME280;51293;59.296;18.006;2023-01-30T08:49:34;97411.59;;;2.96;70.26
64835;BME280;51293;59.296;18.006;2023-01-30T08:51:59;97415.63;;;2.93;69.86
64835;BME280;51293;59.296;18.006;2023-01-30T08:54:31;97413.28;;;3.07;69.53
64835;BME280;51293;59.296;18.006;2023-01-30T08:56:56;97409.78;;;3.06;69.35
64835;BME280;51293;59.296;18.006;2023-01-30T08:59:22;97410.31;;;3.14;68.93
64835;BME280;51293;59.296;18.006;2023-01-30T09:01:47;97397.19;;;3.02;68.51
64835;BME280;51293;59.296;18.006;2023-01-30T09:04:12;97403.84;;;2.94;69.10
64835;BME280;51293;59.296;18.006;2023-01-30T09:06:38;97399.06;;;3.01;68.92
64835;BME280;51293;59.296;18.006;2023-01-30T09:09:03;97406.25;;;2.96;69.35
64835;BME280;51293;59.296;18.006;2023-01-30T09:11:29;97392.91;;;3.06;69.24
64835;BME280;51293;59.296;18.006;2023-01-30T09:13:54;97390.00;;;3.13;69.08
64835;BME280;51293;59.296;18.006;2023-01-30T09:16:19;97405.75;;;3.04;68.62
64835;BME280;51293;59.296;18.006;2023-01-30T09:18:45;97392.88;;;2.91;68.55
64835;BME280;51293;59.296;18.006;2023-01-30T09:21:11;97399.31;;;2.95;68.94
64835;BME280;51293;59.296;18.006;2023-01-30T09:23:37;97392.88;;;2.91;68.63
64835;BME280;51293;59.296;18.006;2023-01-30T09:26:03;97404.09;;;2.88;69.61
64835;BME280;51293;59.296;18.006;2023-01-30T09:28:29;97399.84;;;2.97;69.26
64835;BME280;51293;59.296;18.006;2023-01-30T09:31:01;97402.22;;;2.88;68.63
64835;BME280;51293;59.296;18.006;2023-01-30T09:33:27;97395.53;;;2.86;69.22
64835;BME280;51293;59.296;18.006;2023-01-30T09:35:53;97388.34;;;2.96;68.60
64835;BME280;51293;59.296;18.006;2023-01-30T09:38:18;97385.94;;;2.90;68.49
64835;BME280;51293;59.296;18.006;2023-01-30T09:49:30;97383.19;;;2.69;69.76
64835;BME280;51293;59.296;18.006;2023-01-30T09:52:18;97396.53;;;2.69;69.37
64835;BME280;51293;59.296;18.006;2023-01-30T09:54:47;97390.66;;;2.72;69.56
64835;BME280;51293;59.296;18.006;2023-01-30T09:57:19;97387.47;;;2.75;69.40
64835;BME280;51293;59.296;18.006;2023-01-30T10:05:04;97371.94;;;2.67;69.47
64835;BME280;51293;59.296;18.006;2023-01-30T10:10:33;97372.78;;;2.78;69.08
64835;BME280;51293;59.296;18.006;2023-01-30T10:18:30;97364.88;;;3.19;67.81
64835;BME280;51293;59.296;18.006;2023-01-30T10:21:09;97381.50;;;3.36;66.91
64835;BME280;51293;59.296;18.006;2023-01-30T10:26:14;97380.72;;;3.71;65.38
64835;BME280;51293;59.296;18.006;2023-01-30T10:28:55;97382.59;;;3.71;65.31
64835;BME280;51293;59.296;18.006;2023-01-30T10:31:25;97370.28;;;3.80;65.52
64835;BME280;51293;59.296;18.006;2023-01-30T10:33:59;97370.81;;;3.92;65.21
64835;BME280;51293;59.296;18.006;2023-01-30T10:37:23;97368.38;;;3.80;64.80
64835;BME280;51293;59.296;18.006;2023-01-30T10:42:11;97370.53;;;4.04;64.58
64835;BME280;51293;59.296;18.006;2023-01-30T10:44:39;97361.44;;;3.89;63.96
64835;BME280;51293;59.296;18.006;2023-01-30T10:49:40;97368.38;;;4.01;63.86
64835;BME280;51293;59.296;18.006;2023-01-30T10:52:29;97359.53;;;4.10;63.22
64835;BME280;51293;59.296;18.006;2023-01-30T11:00:22;97355.81;;;4.01;63.54
64835;BME280;51293;59.296;18.006;2023-01-30T11:05:41;97367.31;;;4.07;64.43
64835;BME280;51293;59.296;18.006;2023-01-30T11:08:25;97379.38;;;3.94;64.17
64835;BME280;51293;59.296;18.006;2023-01-30T11:10:52;97372.41;;;3.93;64.05
64835;BME280;51293;59.296;18.006;2023-01-30T11:13:22;97369.47;;;3.89;64.41
64835;BME280;51293;59.296;18.006;2023-01-30T11:15:52;97371.63;;;3.98;64.61
64835;BME280;51293;59.296;18.006;2023-01-30T11:18:20;97373.22;;;3.88;64.83
64835;BME280;51293;59.296;18.006;2023-01-30T11:20:59;97381.50;;;4.07;64.06
64835;BME280;51293;59.296;18.006;2023-01-30T11:23:41;97375.59;;;4.10;64.46
64835;BME280;51293;59.296;18.006;2023-01-30T11:26:10;97380.72;;;4.02;64.36
64835;BME280;51293;59.296;18.006;2023-01-30T11:28:42;97374.81;;;4.05;64.17
64835;BME280;51293;59.296;18.006;2023-01-30T11:31:28;97374.78;;;4.20;63.20
64835;BME280;51293;59.296;18.006;2023-01-30T11:34:09;97382.81;;;4.20;63.59
64835;BME280;51293;59.296;18.006;2023-01-30T11:36:36;97372.66;;;4.17;63.36
64835;BME280;51293;59.296;18.006;2023-01-30T11:44:34;97394.31;;;4.36;62.37
64835;BME280;51293;59.296;18.006;2023-01-30T11:47:03;97395.91;;;4.37;62.92
64835;BME280;51293;59.296;18.006;2023-01-30T11:49:41;97395.97;;;4.11;62.63
64835;BME280;51293;59.296;18.006;2023-01-30T11:52:07;97384.97;;;4.03;63.03
64835;BME280;51293;59.296;18.006;2023-01-30T11:54:43;97401.59;;;3.79;63.09
64835;BME280;51293;59.296;18.006;2023-01-30T11:57:13;97384.47;;;3.75;63.27
64835;BME280;51293;59.296;18.006;2023-01-30T11:59:43;97380.44;;;3.88;63.52
64835;BME280;51293;59.296;18.006;2023-01-30T12:02:32;97374.81;;;4.05;62.29
64835;BME280;51293;59.296;18.006;2023-01-30T12:05:30;97389.00;;;4.00;62.34
64835;BME280;51293;59.296;18.006;2023-01-30T12:10:49;97407.22;;;3.57;63.93
64835;BME280;51293;59.296;18.006;2023-01-30T12:13:23;97413.09;;;3.49;65.33
64835;BME280;51293;59.296;18.006;2023-01-30T12:15:56;97413.06;;;3.39;67.04
64835;BME280;51293;59.296;18.006;2023-01-30T12:18:31;97408.44;;;3.14;69.21
64835;BME280;51293;59.296;18.006;2023-01-30T12:21:19;97395.59;;;3.01;70.81
64835;BME280;51293;59.296;18.006;2023-01-30T12:23:51;97409.19;;;2.94;71.26
64835;BME280;51293;59.296;18.006;2023-01-30T12:26:56;97395.56;;;2.91;70.87
64835;BME280;51293;59.296;18.006;2023-01-30T12:29:32;97399.31;;;2.95;70.62
64835;BME280;51293;59.296;18.006;2023-01-30T12:32:06;97393.69;;;2.96;70.17
64835;BME280;51293;59.296;18.006;2023-01-30T12:34:35;97393.72;;;3.01;69.97
64835;BME280;51293;59.296;18.006;2023-01-30T12:37:31;97392.94;;;3.11;69.17
64835;BME280;51293;59.296;18.006;2023-01-30T12:45:36;97398.63;;;3.35;69.06
64835;BME280;51293;59.296;18.006;2023-01-30T12:51:02;97409.59;;;3.44;68.69
64835;BME280;51293;59.296;18.006;2023-01-30T12:58:44;97398.63;;;3.40;69.37
64835;BME280;51293;59.296;18.006;2023-01-30T13:04:40;97402.06;;;3.30;69.81
64835;BME280;51293;59.296;18.006;2023-01-30T13:07:18;97411.47;;;3.33;69.61
64835;BME280;51293;59.296;18.006;2023-01-30T13:10:23;97417.53;;;3.13;69.70
64835;BME280;51293;59.296;18.006;2023-01-30T13:18:17;97425.59;;;3.18;69.18
64835;BME280;51293;59.296;18.006;2023-01-30T13:23:53;97429.38;;;3.32;67.38
64835;BME280;51293;59.296;18.006;2023-01-30T13:26:29;97432.31;;;3.26;66.56
64835;BME280;51293;59.296;18.006;2023-01-30T13:28:59;97441.41;;;3.30;66.36
64835;BME280;51293;59.296;18.006;2023-01-30T13:31:31;97449.72;;;3.44;65.82
64835;BME280;51293;59.296;18.006;2023-01-30T13:34:09;97429.41;;;3.43;64.78
64835;BME280;51293;59.296;18.006;2023-01-30T13:36:41;97442.78;;;3.53;65.10
64835;BME280;51293;59.296;18.006;2023-01-30T13:39:13;97460.44;;;3.54;65.29
64835;BME280;51293;59.296;18.006;2023-01-30T13:41:44;97451.63;;;3.53;64.95
64835;BME280;51293;59.296;18.006;2023-01-30T13:44:31;97446.78;;;3.45;65.32
64835;BME280;51293;59.296;18.006;2023-01-30T13:47:10;97467.13;;;3.41;65.98
64835;BME280;51293;59.296;18.006;2023-01-30T13:52:33;97474.59;;;3.39;66.77
64835;BME280;51293;59.296;18.006;2023-01-30T13:55:28;97477.25;;;3.34;67.77
64835;BME280;51293;59.296;18.006;2023-01-30T13:58:59;97494.09;;;3.24;68.79
64835;BME280;51293;59.296;18.006;2023-01-30T14:00:58;97499.72;;;3.23;69.32
64835;BME280;51293;59.296;18.006;2023-01-30T14:08:23;97528.03;;;3.19;71.13
64835;BME280;51293;59.296;18.006;2023-01-30T14:10:53;97531.75;;;3.18;71.65
64835;BME280;51293;59.296;18.006;2023-01-30T14:13:21;97546.97;;;3.12;72.52
64835;BME280;51293;59.296;18.006;2023-01-30T14:15:54;97551.56;;;3.17;73.23
64835;BME280;51293;59.296;18.006;2023-01-30T14:18:22;97569.97;;;3.13;74.79
64835;BME280;51293;59.296;18.006;2023-01-30T14:20:50;97576.94;;;3.14;76.54
64835;BME280;51293;59.296;18.006;2023-01-30T14:23:33;97589.72;;;3.02;78.35
64835;BME280;51293;59.296;18.006;2023-01-30T14:25:59;97599.06;;;2.99;79.77
64835;BME280;51293;59.296;18.006;2023-01-30T14:30:55;97591.84;;;3.00;80.68
64835;BME280;51293;59.296;18.006;2023-01-30T14:38:17;97605.56;;;2.76;81.97
64835;BME280;51293;59.296;18.006;2023-01-30T14:40:45;97608.63;;;2.90;81.44
64835;BME280;51293;59.296;18.006;2023-01-30T14:45:51;97621.22;;;2.95;81.08
64835;BME280;51293;59.296;18.006;2023-01-30T15:07:29;97678.47;;;2.99;79.71
64835;BME280;51293;59.296;18.006;2023-01-30T15:10:04;97687.66;;;3.13;79.15
64835;BME280;51293;59.296;18.006;2023-01-30T15:26:19;97715.38;;;3.02;78.74
64835;BME280;51293;59.296;18.006;2023-01-30T15:29:05;97731.69;;;3.00;78.28
64835;BME280;51293;59.296;18.006;2023-01-30T15:31:36;97734.19;;;3.12;77.93
64835;BME280;51293;59.296;18.006;2023-01-30T15:34:01;97737.66;;;3.13;77.54
64835;BME280;51293;59.296;18.006;2023-01-30T15:36:33;97747.75;;;3.05;77.56
64835;BME280;51293;59.296;18.006;2023-01-30T15:39:04;97760.31;;;3.05;77.61
64835;BME280;51293;59.296;18.006;2023-01-30T15:41:37;97766.28;;;3.12;77.49
64835;BME280;51293;59.296;18.006;2023-01-30T15:49:48;97782.38;;;3.17;77.27
64835;BME280;51293;59.296;18.006;2023-01-30T15:52:18;97800.56;;;3.20;76.92